Data for 05/04/2014

Time Sea-Level Adjusted Pressure Absolute Pressure Temperature Relative Humidity Dew Point   
(mb) (inHg) (mb) (inHg) (C) (F) (%) (C) (F)
00:05 1012 29.88 841 24.83 3.2 37.8 84 0.8 33.4
00:10 1012 29.88 841 24.83 3.2 37.7 85 0.9 33.6
00:15 1012 29.88 841 24.83 3.1 37.6 85 0.9 33.6
00:20 1012 29.88 841 24.83 3.1 37.5 85 0.8 33.5
00:25 1012 29.88 841 24.83 3.1 37.6 85 0.8 33.5
00:30 1012 29.88 841 24.83 3.2 37.7 85 0.8 33.5
00:35 1012 29.88 841 24.83 3.2 37.7 84 0.8 33.4
00:40 1012 29.88 841 24.83 3.2 37.7 85 0.8 33.5
00:45 1012 29.88 841 24.83 3.1 37.6 84 0.7 33.3
00:50 1012 29.88 841 24.83 3.2 37.8 84 0.7 33.3
00:55 1012 29.88 841 24.83 3.2 37.7 84 0.8 33.5
01:00 1012 29.88 841 24.83 3.1 37.7 84 0.7 33.3
01:05 1012 29.88 841 24.83 3.2 37.8 84 0.7 33.2
01:10 1012 29.88 841 24.83 3.3 37.9 83 0.7 33.2
01:15 1012 29.88 841 24.83 3.3 37.9 83 0.7 33.3
01:20 1012 29.88 841 24.83 3.3 37.9 84 0.7 33.3
01:25 1011 29.85 841 24.83 3.2 37.7 84 0.7 33.3
01:30 1011 29.85 841 24.83 3.1 37.5 84 0.7 33.2
01:35 1011 29.85 841 24.83 3 37.5 84 0.6 33.1
01:40 1011 29.85 841 24.83 3.1 37.6 83 0.6 33
01:45 1011 29.85 841 24.83 3.1 37.6 84 0.6 33.1
01:50 1011 29.85 841 24.83 3.1 37.5 84 0.6 33.1
01:55 1011 29.85 841 24.83 3 37.4 84 0.6 33
02:00 1011 29.85 841 24.83 3 37.4 84 0.5 32.9
02:05 1011 29.85 841 24.83 2.9 37.3 84 0.5 32.9
02:10 1011 29.85 841 24.83 2.9 37.2 84 0.5 32.9
02:15 1011 29.85 841 24.83 2.8 37.1 84 0.5 32.8
02:20 1011 29.85 841 24.83 2.8 37.1 84 0.4 32.8
02:25 1011 29.85 841 24.83 2.9 37.2 84 0.4 32.8
02:30 1011 29.85 841 24.83 2.9 37.1 85 0.5 33
02:35 1011 29.85 841 24.83 2.9 37.2 85 0.6 33.1
02:40 1011 29.85 841 24.83 2.9 37.2 85 0.5 33
02:45 1011 29.85 840 24.81 2.8 37 85 0.5 32.8
02:50 1011 29.85 840 24.81 2.7 36.8 85 0.4 32.7
02:55 1011 29.85 841 24.83 2.7 36.9 85 0.4 32.7
03:00 1011 29.85 841 24.83 2.7 36.9 85 0.5 32.9
03:05 1011 29.85 841 24.83 2.8 37 85 0.5 32.8
03:10 1011 29.85 841 24.83 2.8 37.1 84 0.5 32.9
03:15 1011 29.85 841 24.83 2.9 37.2 84 0.5 32.9
03:20 1011 29.85 841 24.83 2.9 37.3 84 0.5 32.9
03:25 1011 29.85 841 24.83 2.9 37.3 84 0.5 32.8
03:30 1011 29.85 841 24.83 3 37.3 83 0.4 32.8
03:35 1011 29.85 841 24.83 3 37.4 84 0.5 32.9
03:40 1011 29.85 840 24.81 3 37.4 84 0.6 33
03:45 1011 29.85 840 24.81 3 37.3 84 0.5 33
03:50 1011 29.85 840 24.81 3 37.4 85 0.6 33.2
03:55 1011 29.85 840 24.81 3 37.3 85 0.7 33.2
04:00 1011 29.85 840 24.81 2.9 37.2 85 0.6 33.1
04:05 1011 29.85 840 24.81 2.9 37.2 84 0.5 33
04:10 1011 29.85 840 24.81 2.9 37.2 85 0.6 33
04:15 1011 29.85 840 24.81 2.9 37.3 84 0.5 32.9
04:20 1011 29.85 840 24.81 2.9 37.2 84 0.5 33
04:25 1010 29.83 840 24.81 2.9 37.2 85 0.6 33
04:30 1011 29.85 840 24.81 2.9 37.1 84 0.5 32.9
04:35 1010 29.83 840 24.81 2.8 37.1 85 0.5 32.9
04:40 1010 29.83 839 24.78 2.8 37 85 0.6 33
04:45 1010 29.83 839 24.78 2.7 36.9 86 0.6 33.1
04:50 1010 29.83 839 24.78 2.7 36.8 87 0.7 33.2
04:55 1010 29.83 839 24.78 2.6 36.7 87 0.6 33.2
05:00 1010 29.83 839 24.78 2.6 36.7 87 0.7 33.2
05:05 1010 29.83 840 24.81 2.6 36.7 87 0.6 33.1
05:10 1010 29.83 839 24.78 2.6 36.7 87 0.6 33.1
05:15 1010 29.83 839 24.78 2.6 36.8 86 0.5 32.9
05:20 1010 29.83 839 24.78 2.7 36.9 85 0.4 32.7
05:25 1010 29.83 839 24.78 2.8 37 84 0.4 32.7
05:30 1010 29.83 839 24.78 2.8 37 84 0.4 32.8
05:35 1010 29.83 839 24.78 2.8 37 85 0.5 32.9
05:40 1010 29.83 839 24.78 2.7 36.9 85 0.5 32.9
05:45 1010 29.83 839 24.78 2.8 37 85 0.5 32.8
05:50 1010 29.83 839 24.78 2.8 37.1 85 0.5 33
05:55 1010 29.83 839 24.78 2.9 37.2 85 0.6 33.1
06:00 1010 29.83 839 24.78 2.9 37.2 86 0.7 33.3
06:05 1010 29.83 839 24.78 2.9 37.2 86 0.7 33.3
06:10 1010 29.83 839 24.78 3 37.4 84 0.6 33
06:15 1010 29.83 839 24.78 3.1 37.6 83 0.4 32.8
06:20 1010 29.83 839 24.78 3.2 37.7 83 0.5 33
06:25 1010 29.83 839 24.78 3.2 37.7 84 0.7 33.2
06:30 1010 29.83 839 24.78 3.1 37.7 84 0.6 33.2
06:35 1010 29.83 840 24.81 3.2 37.7 83 0.6 33.1
06:40 1010 29.83 840 24.81 3.2 37.8 83 0.6 33.1
06:45 1010 29.83 840 24.81 3.2 37.8 83 0.5 32.9
06:50 1011 29.85 840 24.81 3.3 38 81 0.5 32.8
06:55 1011 29.85 840 24.81 3.5 38.2 81 0.4 32.8
07:00 1011 29.85 840 24.81 3.6 38.4 80 0.5 32.9
07:05 1011 29.85 840 24.81 3.7 38.7 80 0.7 33.2
07:10 1010 29.83 840 24.81 3.8 38.9 83 1.1 34
07:15 1011 29.85 840 24.81 3.8 38.8 83 1.2 34.1
07:20 1011 29.85 840 24.81 3.8 38.8 85 1.4 34.6
07:25 1011 29.85 840 24.81 3.7 38.6 85 1.3 34.4
07:30 1011 29.85 840 24.81 3.8 38.9 84 1.4 34.5
07:35 1011 29.85 840 24.81 3.8 38.8 84 1.4 34.4
07:40 1011 29.85 840 24.81 3.7 38.7 84 1.3 34.3
07:45 1011 29.85 840 24.81 3.8 38.9 83 1.3 34.3
07:50 1011 29.85 840 24.81 4 39.2 82 1.2 34.2
07:55 1011 29.85 840 24.81 4.2 39.6 81 1.2 34.2
08:00 1011 29.85 840 24.81 4.4 39.9 81 1.3 34.4
08:05 1011 29.85 840 24.81 4.4 39.9 80 1.3 34.4
08:10 1011 29.85 840 24.81 4.4 39.9 81 1.4 34.5
08:15 1011 29.85 840 24.81 4.4 39.9 80 1.3 34.3
08:20 1011 29.85 841 24.83 4.5 40.1 79 1.2 34.2
08:25 1012 29.88 841 24.83 4.5 40.1 79 1.2 34.2
08:30 1012 29.88 841 24.83 4.5 40.1 79 1.2 34.2
08:35 1012 29.88 841 24.83 4.5 40.1 80 1.3 34.3
08:40 1012 29.88 841 24.83 4.5 40.1 80 1.3 34.4
08:45 1012 29.88 841 24.83 4.5 40.2 80 1.4 34.5
08:50 1012 29.88 841 24.83 4.5 40.2 80 1.5 34.6
08:55 1012 29.88 841 24.83 4.5 40.1 81 1.5 34.6
09:00 1012 29.88 842 24.86 4.5 40.1 81 1.5 34.8
09:05 1012 29.88 842 24.86 4.6 40.3 81 1.5 34.8
09:10 1012 29.88 842 24.86 4.8 40.6 80 1.7 35
09:15 1013 29.91 842 24.86 4.8 40.6 80 1.6 34.9
09:20 1013 29.91 842 24.86 4.9 40.8 79 1.6 34.9
09:25 1013 29.91 842 24.86 5 40.9 78 1.5 34.7
09:30 1013 29.91 842 24.86 5 40.9 79 1.6 34.8
09:35 1013 29.91 842 24.86 5.2 41.4 77 1.5 34.8
09:40 1013 29.91 842 24.86 5.6 42.1 75 1.5 34.7
09:45 1013 29.91 842 24.86 5.7 42.2 76 1.7 35.1
09:50 1013 29.91 842 24.86 5.7 42.2 76 1.7 35.1
09:55 1013 29.91 842 24.86 5.7 42.3 76 1.8 35.3
10:00 1013 29.91 842 24.86 5.6 42 76 1.6 34.9
10:05 1013 29.91 842 24.86 6.9 44.4 69 1.7 35
10:10 1013 29.91 842 24.86 7.5 45.6 66 1.7 35
10:15 1013 29.91 842 24.86 8.1 46.6 64 1.7 35.1
10:20 1013 29.91 842 24.86 8 46.4 65 1.9 35.3
10:25 1013 29.91 842 24.86 7.9 46.3 66 1.9 35.4
10:30 1013 29.91 842 24.86 8.6 47.4 63 2 35.7
10:35 1013 29.91 842 24.86 8.7 47.6 64 2.3 36.2
10:40 1013 29.91 842 24.86 9.1 48.3 61 1.9 35.4
10:45 1013 29.91 842 24.86 8.7 47.7 64 2.3 36.1
10:50 1013 29.91 842 24.86 9.5 49.1 59 1.9 35.5
10:55 1013 29.91 842 24.86 10 50 58 2.3 36.1
11:00 1013 29.91 842 24.86 10.6 51.1 55 2 35.5
11:05 1013 29.91 842 24.86 10.3 50.5 57 2.2 36
11:10 1013 29.91 842 24.86 9.9 49.8 58 2 35.6
11:15 1013 29.91 842 24.86 10 50 58 2.1 35.7
11:20 1013 29.91 842 24.86 10.3 50.5 56 1.8 35.3
11:25 1013 29.91 842 24.86 11.1 52 53 1.8 35.3
11:30 1013 29.91 842 24.86 11.9 53.3 52 2.3 36.1
11:35 1013 29.91 842 24.86 11.7 53 52 2.3 36.1
11:40 1013 29.91 842 24.86 11.5 52.8 54 2.5 36.5
11:45 1013 29.91 842 24.86 11.3 52.4 53 2.2 35.9
11:50 1013 29.91 842 24.86 11.6 52.9 53 2.5 36.6
11:55 1013 29.91 842 24.86 11.1 52 55 2.4 36.3
12:00 1013 29.91 842 24.86 11.4 52.4 53 2.2 35.9
12:05 1013 29.91 842 24.86 11.5 52.7 53 2.2 36
12:10 1013 29.91 842 24.86 11.3 52.4 51 1.7 35.1
12:15 1013 29.91 842 24.86 12.7 54.9 48 2.2 35.9
12:20 1012 29.88 842 24.86 13.1 55.7 49 2.6 36.7
12:25 1012 29.88 842 24.86 12.8 55.1 45 1.3 34.4
12:30 1012 29.88 842 24.86 13.7 56.7 44 1.8 35.3
12:35 1012 29.88 842 24.86 13.2 55.8 45 1.7 35.1
12:40 1012 29.88 842 24.86 13.2 55.7 46 1.9 35.5
12:45 1012 29.88 842 24.86 13.3 55.9 46 2 35.7
12:50 1012 29.88 841 24.83 13.9 56.9 43 1.5 34.7
12:55 1012 29.88 841 24.83 14.2 57.6 41 1.3 34.4
13:00 1012 29.88 841 24.83 14.9 58.7 39 1.2 34.2
13:05 1012 29.88 841 24.83 15.4 59.7 39 1.4 34.6
13:10 1012 29.88 841 24.83 15.1 59.2 39 1.3 34.3
13:15 1012 29.88 841 24.83 16.2 61.1 36 1 33.8
13:20 1012 29.88 841 24.83 16.5 61.6 35 0.9 33.7
13:25 1012 29.88 841 24.83 16.3 61.3 37 1.8 35.2
13:30 1012 29.88 841 24.83 14.8 58.6 41 1.7 35.1
13:35 1011 29.85 841 24.83 15.3 59.5 37 1 33.8
13:40 1011 29.85 841 24.83 15.3 59.6 39 1.6 34.9
13:45 1011 29.85 840 24.81 15.4 59.7 38 1.3 34.4
13:50 1011 29.85 840 24.81 15.1 59.1 38 0.9 33.6
13:55 1011 29.85 840 24.81 15.4 59.7 38 1.2 34.1
14:00 1011 29.85 840 24.81 15.3 59.5 40 1.8 35.3
14:05 1011 29.85 840 24.81 14.7 58.4 38 0.7 33.2
14:10 1011 29.85 840 24.81 15.7 60.3 35 0.6 33
14:15 1011 29.85 840 24.81 16.1 60.9 34 0.4 32.8
14:20 1011 29.85 840 24.81 16.7 62.1 33 0.5 33
14:25 1011 29.85 840 24.81 16.6 61.8 35 1.1 34
14:30 1011 29.85 840 24.81 15.8 60.4 37 1.1 34.1
14:35 1011 29.85 840 24.81 15.3 59.5 38 1.2 34.1
14:40 1011 29.85 840 24.81 14.8 58.6 38 0.5 32.9
14:45 1011 29.85 840 24.81 15.1 59.1 37 0.5 32.9
14:50 1011 29.85 840 24.81 15.4 59.7 37 0.9 33.6
14:55 1011 29.85 840 24.81 14.9 58.9 38 0.7 33.2
15:00 1011 29.85 840 24.81 15 59.1 37 0.6 33.2
15:05 1010 29.83 840 24.81 14.8 58.7 37 0.4 32.7
15:10 1011 29.85 840 24.81 15.6 60.1 34 0.1 32.2
15:15 1010 29.83 840 24.81 15.2 59.4 38 1 33.9
15:20 1010 29.83 840 24.81 14.5 58 38 0.2 32.4
15:25 1011 29.85 840 24.81 14.7 58.4 38 0.5 32.9
15:30 1011 29.85 840 24.81 15 58.9 38 0.9 33.6
15:35 1011 29.85 840 24.81 15.6 60.1 35 0.4 32.6
15:40 1011 29.85 840 24.81 16.8 62.3 32 0.1 32.2
15:45 1010 29.83 840 24.81 16.6 61.9 33 0.5 32.9
15:50 1010 29.83 840 24.81 15.8 60.4 37 1.2 34.1
15:55 1010 29.83 839 24.78 15.6 60.2 35 0.4 32.7
16:00 1010 29.83 839 24.78 15.3 59.5 37 0.7 33.2
16:05 1010 29.83 839 24.78 15.9 60.6 34 0.2 32.3
16:10 1010 29.83 840 24.81 16.1 60.9 34 0.3 32.6
16:15 1010 29.83 840 24.81 15.9 60.5 35 0.4 32.8
16:20 1010 29.83 840 24.81 15.7 60.2 34 -0.1 31.7
16:25 1010 29.83 840 24.81 16.4 61.5 34 0.5 32.8
16:30 1010 29.83 840 24.81 16.1 60.9 35 0.6 33
16:35 1010 29.83 840 24.81 15.7 60.2 36 0.6 33.1
16:40 1011 29.85 840 24.81 15 59.1 37 0.7 33.3
16:45 1011 29.85 840 24.81 14.9 58.8 37 0.5 32.8
16:50 1011 29.85 840 24.81 14.8 58.7 40 1.6 34.9
16:55 1011 29.85 840 24.81 14.8 58.6 38 0.8 33.4
17:00 1011 29.85 840 24.81 14.6 58.3 42 1.8 35.2
17:05 1011 29.85 840 24.81 14.2 57.6 42 1.7 35
17:10 1011 29.85 840 24.81 13.9 57.1 41 1 33.9
17:15 1011 29.85 840 24.81 13.9 57 42 1.4 34.5
17:20 1011 29.85 841 24.83 12.8 55 59 5 41
17:25 1012 29.88 841 24.83 11 51.7 69 5.4 41.8
17:30 1012 29.88 841 24.83 10.3 50.5 72 5.6 42.1
17:35 1012 29.88 841 24.83 10 49.9 74 5.5 42
17:40 1012 29.88 841 24.83 9.7 49.4 78 6 42.8
17:45 1012 29.88 841 24.83 9.8 49.7 75 5.7 42.3
17:50 1011 29.85 841 24.83 9.9 49.8 72 5.2 41.3
17:55 1011 29.85 841 24.83 10 50.1 72 5.2 41.3
18:00 1011 29.85 840 24.81 9.9 49.9 77 6.1 43.1
18:05 1011 29.85 840 24.81 9.8 49.7 75 5.7 42.2
18:10 1011 29.85 840 24.81 9.9 49.8 75 5.6 42.1
18:15 1011 29.85 840 24.81 10 50 75 5.7 42.2
18:20 1011 29.85 840 24.81 10 49.9 74 5.6 42
18:25 1011 29.85 840 24.81 10.1 50.2 73 5.5 41.9
18:30 1011 29.85 840 24.81 10.1 50.1 76 6 42.7
18:35 1011 29.85 840 24.81 10 49.9 72 5.2 41.3
18:40 1011 29.85 840 24.81 10.1 50.1 74 5.7 42.2
18:45 1011 29.85 840 24.81 10.2 50.3 75 5.9 42.7
18:50 1011 29.85 840 24.81 10.2 50.4 74 5.9 42.6
18:55 1011 29.85 841 24.83 10.1 50.2 74 5.7 42.3
19:00 1011 29.85 841 24.83 10 50 72 5.3 41.5
19:05 1011 29.85 841 24.83 10 50 69 4.7 40.4
19:10 1011 29.85 841 24.83 10 50 69 4.7 40.4
19:15 1011 29.85 841 24.83 10.1 50.2 68 4.6 40.2
19:20 1012 29.88 841 24.83 10.1 50.2 69 4.7 40.4
19:25 1012 29.88 841 24.83 10 50.1 67 4.3 39.8
19:30 1012 29.88 841 24.83 10.1 50.1 67 4.2 39.5
19:35 1012 29.88 841 24.83 10 50.1 66 4 39.1
19:40 1012 29.88 841 24.83 10 50 67 4.1 39.4
19:45 1012 29.88 841 24.83 9.9 49.7 67 4.1 39.3
19:50 1012 29.88 841 24.83 9.8 49.6 68 4.1 39.4
19:55 1012 29.88 841 24.83 9.8 49.6 67 4.1 39.3
20:00 1012 29.88 841 24.83 9.6 49.4 68 4.1 39.4
20:05 1012 29.88 841 24.83 9.5 49 70 4.2 39.6
20:10 1012 29.88 841 24.83 9.3 48.8 70 4.3 39.7
20:15 1012 29.88 841 24.83 9.2 48.6 72 4.4 39.9
20:20 1012 29.88 841 24.83 9.1 48.3 71 4.1 39.4
20:25 1012 29.88 841 24.83 9.1 48.3 72 4.3 39.8
20:30 1012 29.88 842 24.86 9 48.1 73 4.3 39.8
20:35 1013 29.91 842 24.86 9 48.1 72 4.1 39.4
20:40 1013 29.91 842 24.86 9 48.2 72 4.3 39.7
20:45 1013 29.91 842 24.86 9 48.3 71 4.1 39.4
20:50 1013 29.91 842 24.86 9.1 48.4 72 4.3 39.7
20:55 1013 29.91 842 24.86 9 48.2 73 4.4 40
21:00 1013 29.91 842 24.86 8.8 47.9 74 4.4 39.9
21:05 1013 29.91 842 24.86 8.9 48.1 73 4.4 39.8
21:10 1013 29.91 842 24.86 8.8 47.9 73 4.3 39.8
21:15 1013 29.91 842 24.86 8.8 47.9 73 4.2 39.5
21:20 1013 29.91 842 24.86 8.9 48 73 4.3 39.7
21:25 1013 29.91 842 24.86 8.8 47.8 75 4.6 40.2
21:30 1013 29.91 842 24.86 8.7 47.6 74 4.3 39.7
21:35 1013 29.91 842 24.86 8.8 47.9 72 4.1 39.4
21:40 1013 29.91 842 24.86 8.8 47.9 74 4.5 40
21:45 1013 29.91 842 24.86 8.7 47.7 75 4.6 40.2
21:50 1013 29.91 842 24.86 8.6 47.4 76 4.6 40.2
21:55 1013 29.91 842 24.86 8.3 47 75 4.1 39.4
22:00 1013 29.91 842 24.86 8.5 47.3 75 4.3 39.7
22:05 1013 29.91 842 24.86 8.5 47.4 74 4.2 39.5
22:10 1013 29.91 842 24.86 8.4 47.1 74 4.1 39.4
22:15 1013 29.91 842 24.86 8.2 46.7 74 3.9 39
22:20 1013 29.91 842 24.86 8.3 46.9 73 3.7 38.7
22:25 1013 29.91 842 24.86 8.6 47.5 73 4.1 39.4
22:30 1013 29.91 842 24.86 8.6 47.5 74 4.3 39.8
22:35 1013 29.91 842 24.86 8.5 47.2 76 4.5 40.1
22:40 1013 29.91 842 24.86 7.8 46 80 4.6 40.3
22:45 1013 29.91 842 24.86 7.4 45.3 80 4.1 39.4
22:50 1013 29.91 842 24.86 7.5 45.4 79 4.1 39.4
22:55 1013 29.91 842 24.86 7.5 45.4 78 3.9 39
23:00 1013 29.91 842 24.86 7.6 45.7 78 4 39.3
23:05 1013 29.91 842 24.86 7.7 45.8 75 3.5 38.3
23:10 1013 29.91 842 24.86 7.9 46.3 74 3.5 38.4
23:15 1013 29.91 842 24.86 8.1 46.5 74 3.8 38.9
23:20 1013 29.91 842 24.86 7.9 46.2 77 4 39.3
23:25 1013 29.91 842 24.86 7.5 45.5 77 3.6 38.6
23:30 1013 29.91 842 24.86 7.3 45.1 78 3.8 38.8
23:35 1013 29.91 842 24.86 7.1 44.9 78 3.6 38.4
23:40 1013 29.91 842 24.86 7.1 44.8 77 3.4 38.1
23:45 1013 29.91 842 24.86 7.1 44.7 77 3.4 38.1
23:50 1013 29.91 842 24.86 6.9 44.4 78 3.3 37.9
23:55 1013 29.91 842 24.86 6.9 44.5 75 2.8 37
24:00 1013 29.91 842 24.86 7.3 45.1 73 2.7 36.9